Time;durP1;ratioP1;P1;durP2;ratioP2;P2;SDS_P1;SDS_P2;PMS_P1;PMS_P2;Temp;Humidity;BMP_temperature;BMP_pressure;BME280_temperature;BME280_humidity;BME280_pressure;Samples;Min_cycle;Max_cycle;Signal;HPM_P1;HPM_P2
2024/03/15 00:01:37;;;;;;;1.95;1.52;;;19.20;58.80;;;;;;5031988;28;26325;-51
2024/03/15 00:04:03;;;;;;;2.13;1.60;;;19.20;58.70;;;;;;5027752;28;20056;-56
2024/03/15 00:06:29;;;;;;;2.13;1.48;;;19.20;58.70;;;;;;5031523;28;20029;-55
2024/03/15 00:08:56;;;;;;;1.92;1.60;;;19.20;58.90;;;;;;5026707;28;20148;-54
2024/03/15 00:11:22;;;;;;;2.30;1.90;;;19.20;58.80;;;;;;5030156;28;20035;-50
2024/03/15 00:13:48;;;;;;;1.73;1.50;;;19.20;58.70;;;;;;5026724;28;20030;-53
2024/03/15 00:16:14;;;;;;;1.92;1.50;;;19.20;58.80;;;;;;5031038;28;20040;-49
2024/03/15 00:18:40;;;;;;;3.28;1.50;;;19.20;58.80;;;;;;5025465;28;20037;-53
2024/03/15 00:21:05;;;;;;;2.30;1.67;;;19.20;58.70;;;;;;5031549;28;20081;-55
2024/03/15 00:23:31;;;;;;;2.33;1.88;;;19.20;58.70;;;;;;5024683;28;20034;-54
2024/03/15 00:25:58;;;;;;;2.45;1.73;;;19.20;58.70;;;;;;5023748;28;20060;-56
2024/03/15 00:28:24;;;;;;;1.88;1.55;;;19.20;58.80;;;;;;5033905;28;20065;-54
2024/03/15 00:30:49;;;;;;;2.65;1.77;;;19.20;58.70;;;;;;5032226;28;20037;-55
2024/03/15 00:33:15;;;;;;;2.35;1.85;;;19.20;58.80;;;;;;5026145;28;20474;-49
2024/03/15 00:35:42;;;;;;;2.00;1.67;;;19.20;58.80;;;;;;5025211;28;20730;-51
2024/03/15 00:38:08;;;;;;;1.70;1.60;;;19.20;58.80;;;;;;5028754;28;20052;-53
2024/03/15 00:40:33;;;;;;;2.85;1.60;;;19.20;58.70;;;;;;5026972;28;20083;-55
2024/03/15 00:42:59;;;;;;;2.95;1.70;;;19.20;58.80;;;;;;5025141;28;20399;-49
2024/03/15 00:45:25;;;;;;;1.50;1.40;;;19.20;58.80;;;;;;5023126;28;20494;-53
2024/03/15 00:47:51;;;;;;;2.65;1.77;;;19.20;58.70;;;;;;5021808;28;20056;-54
2024/03/15 00:50:17;;;;;;;1.67;1.48;;;19.20;58.80;;;;;;5025333;28;20025;-53
2024/03/15 00:52:43;;;;;;;2.30;1.58;;;19.20;58.80;;;;;;5028481;28;20040;-49
2024/03/15 00:55:10;;;;;;;2.00;1.42;;;19.20;58.80;;;;;;5019071;28;20037;-51
2024/03/15 00:57:36;;;;;;;2.45;1.95;;;19.20;58.80;;;;;;5020358;28;20045;-53
2024/03/15 01:00:03;;;;;;;2.50;1.35;;;19.20;58.80;;;;;;5030520;28;20037;-50
2024/03/15 01:02:28;;;;;;;2.80;1.73;;;19.20;58.80;;;;;;5020764;28;20112;-52
2024/03/15 01:04:54;;;;;;;1.75;1.58;;;19.20;58.80;;;;;;5024493;28;20117;-52
2024/03/15 01:07:20;;;;;;;2.65;1.20;;;19.20;58.80;;;;;;5021869;28;20045;-51
2024/03/15 01:09:45;;;;;;;1.98;1.77;;;19.10;58.80;;;;;;5028609;28;20025;-50
2024/03/15 01:12:12;;;;;;;2.75;1.40;;;19.20;58.90;;;;;;5025239;28;20090;-51
2024/03/15 01:14:37;;;;;;;2.22;1.80;;;19.10;58.90;;;;;;5024956;28;20037;-50
2024/03/15 01:17:03;;;;;;;1.80;1.70;;;19.10;58.90;;;;;;5025922;28;20041;-56
2024/03/15 01:19:32;;;;;;;2.45;1.92;;;19.10;58.90;;;;;;5026797;28;20445;-54
2024/03/15 01:21:57;;;;;;;2.08;1.35;;;19.10;59.00;;;;;;5023444;28;20044;-51
2024/03/15 01:24:23;;;;;;;2.22;1.45;;;19.10;59.00;;;;;;5030326;28;20033;-56
2024/03/15 01:26:49;;;;;;;1.80;1.33;;;19.10;59.10;;;;;;5026109;28;20021;-56
2024/03/15 01:29:14;;;;;;;2.83;1.65;;;19.00;59.10;;;;;;5027682;28;20078;-55
2024/03/15 01:31:40;;;;;;;2.28;1.77;;;19.00;59.10;;;;;;5020011;28;20057;-51
2024/03/15 01:34:05;;;;;;;1.33;1.20;;;19.00;59.20;;;;;;5026100;28;20033;-51
2024/03/15 01:36:31;;;;;;;2.13;1.63;;;19.00;59.30;;;;;;5027674;28;20071;-53
2024/03/15 01:38:56;;;;;;;1.60;1.42;;;19.00;59.20;;;;;;5023889;28;20525;-50
2024/03/15 01:41:22;;;;;;;2.17;1.77;;;18.90;59.50;;;;;;5026650;28;20116;-53
2024/03/15 01:43:48;;;;;;;2.03;1.70;;;19.00;59.40;;;;;;5026816;28;20038;-56
2024/03/15 01:46:13;;;;;;;1.45;1.10;;;19.00;59.40;;;;;;5026016;28;20062;-53
2024/03/15 01:48:39;;;;;;;1.38;1.20;;;18.90;59.40;;;;;;5026550;28;22498;-53
2024/03/15 01:51:06;;;;;;;2.20;1.50;;;18.90;59.20;;;;;;5022123;28;20513;-49
2024/03/15 01:53:32;;;;;;;2.03;1.58;;;18.90;59.30;;;;;;5033167;28;20021;-55
2024/03/15 01:55:57;;;;;;;1.88;1.48;;;18.90;59.20;;;;;;5022931;28;20585;-53
2024/03/15 01:58:24;;;;;;;1.42;1.20;;;18.90;59.30;;;;;;5028581;28;20038;-50
2024/03/15 02:00:50;;;;;;;1.80;1.30;;;18.90;59.20;;;;;;5025195;28;20026;-51
2024/03/15 02:03:16;;;;;;;1.77;1.40;;;18.90;59.20;;;;;;5024007;28;20040;-57
2024/03/15 02:05:43;;;;;;;2.03;1.30;;;18.90;59.20;;;;;;5022493;28;20040;-52
2024/03/15 02:08:08;;;;;;;1.75;1.58;;;18.90;59.10;;;;;;5027818;28;20418;-52
2024/03/15 02:10:34;;;;;;;1.75;1.27;;;19.00;59.20;;;;;;5022017;28;20040;-55
2024/03/15 02:13:01;;;;;;;1.70;1.35;;;18.90;59.10;;;;;;5024764;28;20063;-56
2024/03/15 02:15:27;;;;;;;1.80;1.42;;;19.00;59.20;;;;;;5023810;28;20037;-49
2024/03/15 02:17:54;;;;;;;1.63;1.40;;;19.00;59.20;;;;;;5026009;28;20040;-53
2024/03/15 02:20:21;;;;;;;1.50;1.30;;;19.00;59.10;;;;;;5024114;28;20025;-55
2024/03/15 02:22:47;;;;;;;2.42;1.38;;;19.00;59.20;;;;;;5029236;28;20478;-50
2024/03/15 02:25:13;;;;;;;1.88;1.20;;;19.00;59.10;;;;;;5031763;28;20041;-50
2024/03/15 02:27:39;;;;;;;1.55;1.20;;;19.00;59.10;;;;;;5032259;28;20401;-51
2024/03/15 02:30:06;;;;;;;1.50;1.40;;;19.00;59.10;;;;;;5026868;28;20531;-55
2024/03/15 02:32:32;;;;;;;1.33;1.10;;;19.00;59.70;;;;;;5028269;28;20168;-50
2024/03/15 02:34:58;;;;;;;1.40;1.30;;;19.00;59.00;;;;;;5027465;28;20034;-56
2024/03/15 02:37:23;;;;;;;1.95;1.50;;;19.00;59.00;;;;;;5029576;28;20040;-49
2024/03/15 02:39:51;;;;;;;1.42;1.33;;;19.00;59.00;;;;;;5028808;28;20026;-52
2024/03/15 02:42:17;;;;;;;1.98;1.35;;;19.00;59.00;;;;;;5028852;28;20033;-55
2024/03/15 02:44:42;;;;;;;1.67;1.30;;;19.00;58.90;;;;;;5028827;28;20041;-54
2024/03/15 02:47:08;;;;;;;1.52;1.30;;;19.10;59.00;;;;;;5029836;28;20424;-49
2024/03/15 02:49:34;;;;;;;1.38;1.17;;;19.00;58.90;;;;;;5031617;28;20029;-49
2024/03/15 02:52:00;;;;;;;2.35;1.45;;;19.10;58.90;;;;;;5030316;28;20022;-54
2024/03/15 02:54:28;;;;;;;1.20;1.10;;;19.00;58.90;;;;;;5027935;28;20036;-49
2024/03/15 02:56:54;;;;;;;1.80;1.50;;;19.00;58.90;;;;;;5028530;28;20073;-50
2024/03/15 02:59:20;;;;;;;1.60;1.30;;;19.10;58.90;;;;;;5027707;28;20026;-49
2024/03/15 03:01:46;;;;;;;2.20;1.20;;;19.10;58.90;;;;;;5025976;28;20029;-50
2024/03/15 03:04:14;;;;;;;2.03;1.10;;;19.10;58.90;;;;;;5038852;28;20024;-51
2024/03/15 03:06:42;;;;;;;1.73;1.20;;;19.10;58.90;;;;;;5034996;28;20128;-52
2024/03/15 03:09:09;;;;;;;1.45;1.20;;;19.10;58.90;;;;;;5035526;28;20036;-53
2024/03/15 03:11:36;;;;;;;1.23;1.10;;;19.10;58.90;;;;;;5035919;28;20222;-54
2024/03/15 03:14:04;;;;;;;2.28;1.35;;;19.10;58.90;;;;;;5021941;28;20144;-52
2024/03/15 03:16:33;;;;;;;1.50;1.30;;;19.00;58.90;;;;;;5024005;28;20042;-51
2024/03/15 03:19:00;;;;;;;1.40;1.20;;;19.10;58.90;;;;;;5024158;28;20191;-52
2024/03/15 03:21:26;;;;;;;2.42;1.13;;;19.10;58.90;;;;;;5020485;28;20090;-56
2024/03/15 03:23:53;;;;;;;1.08;0.98;;;19.00;58.90;;;;;;5025123;28;20033;-55
2024/03/15 03:26:19;;;;;;;1.45;1.10;;;19.00;58.90;;;;;;5035183;28;20073;-50
2024/03/15 03:28:45;;;;;;;1.63;1.40;;;19.10;58.90;;;;;;5057664;28;20028;-49
2024/03/15 03:31:10;;;;;;;1.58;1.13;;;19.00;58.90;;;;;;5038195;28;20033;-54
2024/03/15 03:33:35;;;;;;;1.38;1.27;;;19.00;58.90;;;;;;5032240;28;20041;-57
2024/03/15 03:36:02;;;;;;;1.20;1.02;;;19.00;59.00;;;;;;5033278;28;20663;-51
2024/03/15 03:38:27;;;;;;;1.35;1.20;;;19.00;59.00;;;;;;5034214;28;20041;-49
2024/03/15 03:40:52;;;;;;;1.30;1.13;;;19.00;59.00;;;;;;5036588;28;20037;-49
2024/03/15 03:43:18;;;;;;;1.30;1.20;;;19.00;59.00;;;;;;5034114;28;20737;-52
2024/03/15 03:45:46;;;;;;;1.30;1.05;;;19.00;58.90;;;;;;5030123;28;20048;-49
2024/03/15 03:48:13;;;;;;;0.80;0.80;;;19.00;59.00;;;;;;5040216;28;20030;-54
2024/03/15 03:50:39;;;;;;;1.08;0.98;;;19.00;59.00;;;;;;5035645;28;20052;-51
2024/03/15 03:53:04;;;;;;;1.55;0.98;;;19.00;59.00;;;;;;5030549;28;20065;-56
2024/03/15 03:55:31;;;;;;;1.30;1.00;;;19.00;59.00;;;;;;5033203;28;20033;-49
2024/03/15 03:57:58;;;;;;;1.45;1.15;;;19.00;59.00;;;;;;5042245;28;20139;-50
2024/03/15 04:00:24;;;;;;;1.35;1.13;;;19.00;59.00;;;;;;5053879;28;20206;-52
2024/03/15 04:02:52;;;;;;;1.83;1.20;;;19.00;59.00;;;;;;5055448;28;20166;-52
2024/03/15 04:05:18;;;;;;;1.38;1.00;;;19.00;59.10;;;;;;5036260;28;20029;-55
2024/03/15 04:07:46;;;;;;;1.00;0.90;;;18.90;59.00;;;;;;5026744;28;20045;-49
2024/03/15 04:10:13;;;;;;;1.23;0.88;;;19.00;59.10;;;;;;5026182;28;20121;-51
2024/03/15 04:12:40;;;;;;;1.10;1.00;;;19.00;59.10;;;;;;5030070;28;20025;-55
2024/03/15 04:15:06;;;;;;;1.27;1.13;;;19.00;59.10;;;;;;5030024;28;20033;-50
2024/03/15 04:17:32;;;;;;;1.27;1.15;;;19.00;59.10;;;;;;5027289;28;20035;-50
2024/03/15 04:19:58;;;;;;;0.98;0.77;;;19.00;59.10;;;;;;5027475;28;20457;-49
2024/03/15 04:22:26;;;;;;;1.38;1.20;;;18.90;59.10;;;;;;5037008;28;20028;-56
2024/03/15 04:24:54;;;;;;;1.20;1.10;;;19.00;59.10;;;;;;5051209;28;20036;-49
2024/03/15 04:27:22;;;;;;;0.95;0.95;;;19.00;59.10;;;;;;5028522;28;20053;-51
2024/03/15 04:29:48;;;;;;;0.90;0.90;;;19.00;59.10;;;;;;5036047;28;20037;-49
2024/03/15 04:32:13;;;;;;;1.15;1.05;;;19.00;59.10;;;;;;5030807;28;20025;-50
2024/03/15 04:34:40;;;;;;;0.93;0.82;;;19.00;59.20;;;;;;5023561;28;20029;-49
2024/03/15 04:37:08;;;;;;;1.10;0.90;;;19.00;59.10;;;;;;5027688;28;20041;-51
2024/03/15 04:39:34;;;;;;;1.15;1.05;;;19.00;59.10;;;;;;5031692;28;20453;-52
2024/03/15 04:42:01;;;;;;;1.25;0.93;;;19.00;59.10;;;;;;5032736;28;20033;-49
2024/03/15 04:44:27;;;;;;;0.90;0.80;;;18.90;59.00;;;;;;5049903;28;20110;-55
2024/03/15 04:46:53;;;;;;;1.00;0.90;;;19.00;59.10;;;;;;5051741;28;20045;-49
2024/03/15 04:49:18;;;;;;;1.20;0.95;;;19.00;59.10;;;;;;5035073;28;20024;-49
2024/03/15 04:51:44;;;;;;;2.25;1.05;;;19.00;59.10;;;;;;5028792;28;21500;-52
2024/03/15 04:54:09;;;;;;;1.73;1.13;;;18.90;59.00;;;;;;5026056;28;20025;-52
2024/03/15 04:56:35;;;;;;;1.08;0.98;;;19.00;59.20;;;;;;5026439;28;20039;-52
2024/03/15 04:59:01;;;;;;;1.20;1.00;;;19.00;59.00;;;;;;5026858;28;20499;-51
2024/03/15 05:01:26;;;;;;;0.90;0.68;;;18.90;59.00;;;;;;5028160;28;21254;-52
2024/03/15 05:03:52;;;;;;;0.90;0.90;;;19.00;59.00;;;;;;5026029;28;20517;-52
2024/03/15 05:06:18;;;;;;;1.02;0.93;;;19.00;59.00;;;;;;5032810;28;20029;-49
2024/03/15 05:08:43;;;;;;;1.17;0.90;;;19.00;59.00;;;;;;5020560;28;20064;-51
2024/03/15 05:11:09;;;;;;;1.40;1.15;;;19.00;59.00;;;;;;5029491;28;20025;-52
2024/03/15 05:13:35;;;;;;;1.20;1.00;;;19.00;59.10;;;;;;5025891;28;20119;-50
2024/03/15 05:16:01;;;;;;;0.88;0.77;;;19.00;59.00;;;;;;5027101;28;20044;-51
2024/03/15 05:18:29;;;;;;;1.20;1.10;;;19.00;59.00;;;;;;5028258;28;20029;-52
2024/03/15 05:20:55;;;;;;;1.10;0.93;;;19.00;59.00;;;;;;5030296;28;20051;-52
2024/03/15 05:23:20;;;;;;;0.70;0.63;;;19.00;59.00;;;;;;5020800;28;20081;-50
2024/03/15 05:25:46;;;;;;;1.33;1.23;;;19.00;58.90;;;;;;5028789;28;20586;-52
2024/03/15 05:28:11;;;;;;;1.50;1.10;;;19.00;59.00;;;;;;5030907;28;20099;-52
2024/03/15 05:30:37;;;;;;;0.98;0.80;;;19.00;58.90;;;;;;5013234;28;20032;-51
2024/03/15 05:33:02;;;;;;;0.98;0.90;;;19.00;58.90;;;;;;5026622;28;20040;-51
2024/03/15 05:35:28;;;;;;;0.65;0.65;;;19.00;58.90;;;;;;5030202;28;20029;-52
2024/03/15 05:37:54;;;;;;;1.42;0.75;;;19.00;58.90;;;;;;5030822;28;20048;-51
2024/03/15 05:40:21;;;;;;;1.10;0.80;;;19.00;58.80;;;;;;5030411;28;20036;-52
2024/03/15 05:42:47;;;;;;;1.35;0.77;;;19.00;58.80;;;;;;5030738;28;20721;-52
2024/03/15 05:45:13;;;;;;;0.98;0.85;;;19.00;58.90;;;;;;5028861;28;20034;-51
2024/03/15 05:47:39;;;;;;;1.20;0.82;;;19.00;58.80;;;;;;5025214;28;20033;-51
2024/03/15 05:50:06;;;;;;;0.98;0.80;;;19.00;59.40;;;;;;5025380;28;20406;-51
2024/03/15 05:52:34;;;;;;;1.50;0.80;;;19.00;58.70;;;;;;5019632;28;20538;-50
2024/03/15 05:55:00;;;;;;;1.15;0.95;;;19.00;58.80;;;;;;5027975;28;20060;-50
2024/03/15 05:57:28;;;;;;;1.00;0.90;;;19.00;58.80;;;;;;5030221;28;20464;-52
2024/03/15 05:59:54;;;;;;;1.17;0.80;;;19.00;58.70;;;;;;5029973;28;20071;-50
2024/03/15 06:02:20;;;;;;;1.58;0.88;;;19.10;58.80;;;;;;5027244;28;20116;-50
2024/03/15 06:04:46;;;;;;;3.58;1.20;;;19.30;59.30;;;;;;5032004;28;20171;-57
2024/03/15 06:07:11;;;;;;;7.15;1.23;;;19.50;59.60;;;;;;5027454;28;20034;-56
2024/03/15 06:09:38;;;;;;;5.97;1.10;;;19.70;59.50;;;;;;5033633;28;20033;-58
2024/03/15 06:12:04;;;;;;;5.00;1.15;;;19.60;59.00;;;;;;5020855;28;20038;-59
2024/03/15 06:14:30;;;;;;;6.03;1.05;;;19.50;59.60;;;;;;5035208;28;20102;-55
2024/03/15 06:16:56;;;;;;;7.53;1.50;;;19.50;59.60;;;;;;5040989;28;20502;-56
2024/03/15 06:19:22;;;;;;;6.60;1.50;;;19.40;59.70;;;;;;5014168;28;20037;-56
2024/03/15 06:21:49;;;;;;;5.57;1.70;;;19.40;59.80;;;;;;5029610;28;20045;-58
2024/03/15 06:24:21;;;;;;;6.05;0.82;;;19.40;59.70;;;;;;5032207;28;20041;-57
2024/03/15 06:26:52;;;;;;;4.43;1.05;;;19.40;59.80;;;;;;5038176;28;20025;-55
2024/03/15 06:29:20;;;;;;;3.58;1.25;;;19.40;59.80;;;;;;5019204;28;20623;-55
2024/03/15 06:31:45;;;;;;;6.95;1.10;;;19.40;60.00;;;;;;5030351;28;20490;-58
2024/03/15 06:34:12;;;;;;;5.60;1.15;;;19.40;59.90;;;;;;5028381;28;20044;-58
2024/03/15 06:36:49;;;;;;;7.93;1.63;;;19.40;59.90;;;;;;5031747;28;20048;-57
2024/03/15 06:40:01;;;;;;;3.60;1.20;;;19.40;60.00;;;;;;5021457;28;20116;-56
2024/03/15 06:42:23;;;;;;;5.43;1.58;;;19.40;60.00;;;;;;5024549;28;20129;-56
2024/03/15 06:45:03;;;;;;;7.82;1.95;;;19.40;60.10;;;;;;5032456;28;20060;-57
2024/03/15 06:47:31;;;;;;;5.28;2.53;;;19.40;60.30;;;;;;5031066;28;20495;-57
2024/03/15 06:52:54;;;;;;;3.47;2.50;;;19.40;60.20;;;;;;5013835;28;20082;-65
2024/03/15 06:55:20;;;;;;;6.10;2.88;;;19.40;60.00;;;;;;5031693;28;20076;-57
2024/03/15 06:57:48;;;;;;;5.03;2.13;;;19.40;59.90;;;;;;5028535;28;20625;-56
2024/03/15 07:00:14;;;;;;;6.65;2.15;;;19.40;60.10;;;;;;5029812;28;20036;-58
2024/03/15 07:02:43;;;;;;;4.05;2.45;;;19.40;60.10;;;;;;5028833;28;20029;-58
2024/03/15 07:05:13;;;;;;;6.03;2.25;;;19.40;60.00;;;;;;5026898;28;20037;-57
2024/03/15 07:07:40;;;;;;;3.85;2.15;;;19.30;59.70;;;;;;5028109;28;20033;-57
2024/03/15 07:10:10;;;;;;;4.35;2.00;;;19.30;59.60;;;;;;5030082;28;20037;-57
2024/03/15 07:12:39;;;;;;;6.80;2.75;;;19.40;59.80;;;;;;5031439;28;20036;-57
2024/03/15 07:15:08;;;;;;;4.35;2.40;;;19.40;60.00;;;;;;5019630;28;20120;-57
2024/03/15 07:17:35;;;;;;;2.75;2.10;;;19.30;59.70;;;;;;5030176;28;20032;-56
2024/03/15 07:20:03;;;;;;;5.25;1.95;;;19.40;59.60;;;;;;5031322;28;20029;-57
2024/03/15 07:22:29;;;;;;;6.30;2.75;;;19.30;59.50;;;;;;5030329;28;20030;-58
2024/03/15 07:24:54;;;;;;;5.80;2.15;;;19.40;59.50;;;;;;5034149;28;20037;-57
2024/03/15 07:27:20;;;;;;;8.30;2.63;;;19.30;59.40;;;;;;5032218;28;20028;-58
2024/03/15 07:29:46;;;;;;;3.50;2.20;;;19.30;59.40;;;;;;5027943;28;20086;-58
2024/03/15 07:32:11;;;;;;;5.63;2.50;;;19.30;59.40;;;;;;5029517;28;20037;-55
2024/03/15 07:34:37;;;;;;;5.93;2.20;;;19.30;59.50;;;;;;5031068;28;20033;-56
2024/03/15 07:37:03;;;;;;;4.68;2.70;;;19.30;59.80;;;;;;5033197;28;20049;-57
2024/03/15 07:39:29;;;;;;;6.18;2.65;;;19.30;59.70;;;;;;5030583;28;20360;-56
2024/03/15 07:42:01;;;;;;;4.55;2.38;;;19.30;59.70;;;;;;5025550;28;20033;-56
2024/03/15 07:44:28;;;;;;;3.92;2.30;;;19.30;59.60;;;;;;5018177;28;20037;-54
2024/03/15 07:46:56;;;;;;;4.63;2.97;;;19.30;59.70;;;;;;5039853;28;20037;-58
2024/03/15 07:49:24;;;;;;;4.65;2.55;;;19.30;59.70;;;;;;5048468;28;20029;-56
2024/03/15 07:51:50;;;;;;;7.55;3.28;;;19.30;59.70;;;;;;5048767;28;20643;-55
2024/03/15 07:54:18;;;;;;;9.00;3.83;;;19.20;60.10;;;;;;5044718;28;20029;-57
2024/03/15 07:56:44;;;;;;;8.95;4.55;;;19.30;60.50;;;;;;5045327;28;20124;-55
2024/03/15 07:59:09;;;;;;;9.65;3.55;;;19.30;60.40;;;;;;5048526;28;20665;-56
2024/03/15 08:01:35;;;;;;;10.27;3.30;;;19.20;60.20;;;;;;5054578;28;20028;-56
2024/03/15 08:04:00;;;;;;;13.45;3.85;;;19.20;60.10;;;;;;5053757;28;20040;-57
2024/03/15 08:06:26;;;;;;;6.03;4.13;;;19.20;60.00;;;;;;5066526;28;20032;-55
2024/03/15 08:08:51;;;;;;;7.07;3.97;;;19.20;60.10;;;;;;5050166;28;20047;-56
2024/03/15 08:11:18;;;;;;;6.03;3.25;;;19.20;60.10;;;;;;5060637;28;20054;-56
2024/03/15 08:13:44;;;;;;;8.77;3.47;;;19.20;60.00;;;;;;5055707;28;20028;-55
2024/03/15 08:16:18;;;;;;;7.97;3.05;;;19.20;60.00;;;;;;5055754;28;20041;-55
2024/03/15 08:18:47;;;;;;;5.17;3.13;;;19.20;59.90;;;;;;5056412;28;20028;-56
2024/03/15 08:21:13;;;;;;;6.65;2.95;;;19.20;59.80;;;;;;5057040;28;20409;-57
2024/03/15 08:23:39;;;;;;;7.43;3.08;;;19.20;59.60;;;;;;5054871;28;20053;-58
2024/03/15 08:26:04;;;;;;;5.45;2.80;;;19.20;59.50;;;;;;5057749;28;20067;-57
2024/03/15 08:28:31;;;;;;;5.07;3.10;;;19.20;59.40;;;;;;5056685;28;20486;-56
2024/03/15 08:30:56;;;;;;;5.07;2.95;;;19.20;59.30;;;;;;5037741;28;20106;-55
2024/03/15 08:33:22;;;;;;;6.15;3.13;;;19.20;59.30;;;;;;5036745;28;20044;-54
2024/03/15 08:35:47;;;;;;;7.10;2.50;;;19.20;59.30;;;;;;5052691;28;20115;-58
2024/03/15 08:38:13;;;;;;;4.95;2.28;;;19.30;59.20;;;;;;5051671;28;20045;-56
2024/03/15 08:40:38;;;;;;;5.38;2.97;;;19.30;59.20;;;;;;5040133;28;20032;-56
2024/03/15 08:43:04;;;;;;;5.25;2.65;;;19.30;59.20;;;;;;5059580;28;20128;-58
2024/03/15 08:45:29;;;;;;;4.80;2.55;;;19.30;59.10;;;;;;5053803;28;20102;-57
2024/03/15 08:47:55;;;;;;;5.60;2.22;;;19.30;59.20;;;;;;5026492;28;20280;-55
2024/03/15 08:50:21;;;;;;;6.53;2.40;;;19.30;59.10;;;;;;5041649;28;20482;-55
2024/03/15 08:52:48;;;;;;;7.60;2.05;;;19.30;59.20;;;;;;5051596;28;20032;-60
2024/03/15 08:55:13;;;;;;;3.13;2.38;;;19.30;59.00;;;;;;5051837;28;20039;-62
2024/03/15 08:57:39;;;;;;;7.22;2.72;;;19.30;59.00;;;;;;5044420;28;20028;-57
2024/03/15 09:00:11;;;;;;;4.60;2.60;;;19.30;59.00;;;;;;5034149;28;20632;-54
2024/03/15 09:02:36;;;;;;;3.47;2.55;;;19.40;59.70;;;;;;5050429;28;20021;-55
2024/03/15 09:05:08;;;;;;;8.23;3.80;;;19.40;59.50;;;;;;5050548;28;20035;-55
2024/03/15 09:07:37;;;;;;;8.35;3.55;;;19.40;59.70;;;;;;5049693;28;20411;-55
2024/03/15 09:10:15;;;;;;;7.30;3.83;;;19.50;59.80;;;;;;5046282;28;20118;-54
2024/03/15 09:12:45;;;;;;;6.53;3.97;;;19.50;59.90;;;;;;5045332;28;20032;-55
2024/03/15 09:15:12;;;;;;;10.50;4.15;;;19.50;59.90;;;;;;5040911;28;20091;-59
2024/03/15 09:17:38;;;;;;;9.25;3.78;;;19.50;60.00;;;;;;5033573;28;20036;-58
2024/03/15 09:20:19;;;;;;;7.68;4.15;;;19.50;60.00;;;;;;5043905;28;20032;-59
2024/03/15 09:22:49;;;;;;;6.60;3.53;;;19.50;60.00;;;;;;5047062;28;20114;-58
2024/03/15 09:25:26;;;;;;;11.88;4.32;;;19.50;60.10;;;;;;5042728;28;20052;-56
2024/03/15 09:27:52;;;;;;;8.77;3.90;;;19.50;60.00;;;;;;5036418;28;20618;-61
2024/03/15 09:30:58;;;;;;;6.93;4.22;;;19.50;60.00;;;;;;5055937;28;20021;-57
2024/03/15 09:33:18;;;;;;;7.97;4.10;;;19.60;60.20;;;;;;5045925;28;20029;-55
2024/03/15 09:35:46;;;;;;;6.70;3.20;;;19.60;60.20;;;;;;5049628;28;20130;-53
2024/03/15 09:38:15;;;;;;;7.57;3.90;;;19.60;60.20;;;;;;5054418;28;20506;-57
2024/03/15 09:40:42;;;;;;;8.95;3.33;;;19.60;60.10;;;;;;5050333;28;20033;-57
2024/03/15 09:43:13;;;;;;;8.73;3.58;;;19.60;60.10;;;;;;5051835;28;20020;-53
2024/03/15 09:45:39;;;;;;;9.02;3.90;;;19.60;59.90;;;;;;5053297;28;20028;-62
2024/03/15 09:48:10;;;;;;;5.07;2.92;;;19.60;60.10;;;;;;5053747;28;20048;-54
2024/03/15 09:50:38;;;;;;;9.43;3.35;;;19.60;60.00;;;;;;5053060;28;20406;-54
2024/03/15 09:53:04;;;;;;;9.98;3.17;;;19.60;60.00;;;;;;5054852;28;20055;-52
2024/03/15 09:55:30;;;;;;;6.10;2.80;;;19.60;60.10;;;;;;5054080;28;20033;-61
2024/03/15 09:57:56;;;;;;;10.00;2.95;;;19.60;59.90;;;;;;5031891;28;20075;-59
2024/03/15 10:00:23;;;;;;;9.90;3.17;;;19.70;60.00;;;;;;5057750;28;20114;-57
2024/03/15 10:02:51;;;;;;;7.75;3.13;;;19.70;59.80;;;;;;5052057;28;20036;-57
2024/03/15 10:05:20;;;;;;;7.15;2.70;;;19.70;59.70;;;;;;5040330;28;20409;-59
2024/03/15 10:07:47;;;;;;;4.00;2.47;;;19.70;59.60;;;;;;5039178;28;20029;-57
2024/03/15 10:10:13;;;;;;;4.60;2.50;;;19.70;59.60;;;;;;5053606;28;20021;-60
2024/03/15 10:12:44;;;;;;;7.65;3.05;;;19.70;59.40;;;;;;5049591;28;20040;-60
2024/03/15 10:15:11;;;;;;;7.00;2.97;;;19.70;59.10;;;;;;5057515;28;20066;-54
2024/03/15 10:17:40;;;;;;;16.52;2.92;;;19.70;58.90;;;;;;5049646;28;20029;-57
2024/03/15 10:20:14;;;;;;;4.10;2.50;;;19.80;58.80;;;;;;5052527;28;20128;-56
2024/03/15 10:22:40;;;;;;;4.70;2.50;;;19.70;58.60;;;;;;5049843;28;20095;-56
2024/03/15 10:25:15;;;;;;;3.95;2.28;;;19.70;58.50;;;;;;5053636;28;20054;-55
2024/03/15 10:27:43;;;;;;;;;;;19.70;58.30;;;;;;5052219;28;20076;-54
2024/03/15 10:30:17;;;;;;;5.80;2.10;;;19.70;58.20;;;;;;5052782;28;19908;-52
2024/03/15 10:32:46;;;;;;;2.38;1.80;;;19.70;58.10;;;;;;5053845;28;20029;-57
2024/03/15 10:35:13;;;;;;;2.78;1.92;;;19.80;58.00;;;;;;5036402;28;20118;-56
2024/03/15 10:37:43;;;;;;;2.22;1.85;;;19.70;57.60;;;;;;5049071;22;20087;-63
2024/03/15 10:40:16;;;;;;;5.20;2.35;;;19.70;57.60;;;;;;5039455;28;20028;-63
2024/03/15 10:43:08;;;;;;;3.08;1.80;;;19.70;57.50;;;;;;5049633;28;20036;-62
2024/03/15 10:45:34;;;;;;;2.83;2.00;;;19.70;57.50;;;;;;5054298;28;20494;-63
2024/03/15 10:47:59;;;;;;;2.20;1.55;;;19.70;57.30;;;;;;5055261;28;20093;-63
2024/03/15 10:50:27;;;;;;;2.45;1.73;;;19.70;57.30;;;;;;5060471;28;20029;-62
2024/03/15 10:52:54;;;;;;;4.20;2.60;;;19.70;57.30;;;;;;5046395;28;20052;-62
2024/03/15 10:55:28;;;;;;;2.55;1.90;;;19.70;57.20;;;;;;5069281;28;20056;-63
2024/03/15 10:57:56;;;;;;;3.15;1.83;;;19.70;57.30;;;;;;5063171;28;20522;-63
2024/03/15 11:00:26;;;;;;;1.95;1.50;;;19.70;57.20;;;;;;5059921;28;20033;-62
2024/03/15 11:02:56;;;;;;;2.13;1.70;;;19.70;57.20;;;;;;5050809;28;20423;-62
2024/03/15 11:05:29;;;;;;;2.13;1.92;;;19.70;57.20;;;;;;5056262;28;20025;-62
2024/03/15 11:08:14;;;;;;;3.72;1.73;;;19.70;57.10;;;;;;5057967;28;20585;-63
2024/03/15 11:10:40;;;;;;;2.78;1.77;;;19.70;57.10;;;;;;5057082;28;20506;-63
2024/03/15 11:13:13;;;;;;;2.72;2.00;;;19.80;57.10;;;;;;5053685;28;20066;-62
2024/03/15 11:15:42;;;;;;;2.92;1.90;;;19.70;56.90;;;;;;5053131;28;20379;-64
2024/03/15 11:18:09;;;;;;;2.80;2.20;;;19.80;57.10;;;;;;5065426;28;20029;-63
2024/03/15 11:20:55;;;;;;;2.53;1.83;;;19.70;57.50;;;;;;5052846;28;20110;-65
2024/03/15 11:23:27;;;;;;;2.08;1.73;;;19.80;56.90;;;;;;5055464;28;20023;-63
2024/03/15 11:25:56;;;;;;;3.03;2.13;;;19.80;56.90;;;;;;5059011;28;20036;-62
2024/03/15 11:28:26;;;;;;;3.30;2.10;;;19.80;57.10;;;;;;5059391;28;20557;-63
2024/03/15 11:30:52;;;;;;;3.50;2.33;;;19.80;56.90;;;;;;5053972;28;20032;-63
2024/03/15 11:33:18;;;;;;;3.30;1.95;;;19.80;57.10;;;;;;5050788;28;20509;-63
2024/03/15 11:35:44;;;;;;;4.45;2.30;;;19.80;56.90;;;;;;5050629;28;20120;-63
2024/03/15 11:38:14;;;;;;;8.52;2.92;;;19.80;56.90;;;;;;5060908;28;20043;-63
2024/03/15 11:40:40;;;;;;;4.63;2.28;;;19.80;56.90;;;;;;5048278;28;20717;-61
2024/03/15 11:43:09;;;;;;;4.20;2.50;;;19.80;56.90;;;;;;5055684;28;20060;-60
2024/03/15 11:45:36;;;;;;;5.35;2.33;;;19.90;56.90;;;;;;5051356;28;20146;-62
2024/03/15 11:48:12;;;;;;;5.28;2.33;;;19.90;56.70;;;;;;5062170;28;20668;-63
2024/03/15 11:50:37;;;;;;;5.47;1.70;;;19.90;56.50;;;;;;5047539;28;20061;-63
2024/03/15 11:53:06;;;;;;;3.28;2.40;;;19.90;56.60;;;;;;5052972;28;20114;-59
2024/03/15 11:55:32;;;;;;;4.47;2.25;;;19.90;56.40;;;;;;5049322;28;20063;-61
2024/03/15 11:57:57;;;;;;;4.45;1.77;;;19.90;57.10;;;;;;5057129;28;20392;-63
2024/03/15 12:00:24;;;;;;;4.78;2.05;;;19.90;56.40;;;;;;5056017;28;20093;-63
2024/03/15 12:02:53;;;;;;;3.10;1.83;;;20.00;56.50;;;;;;5057910;28;20545;-63
2024/03/15 12:05:18;;;;;;;3.38;1.92;;;20.00;56.30;;;;;;5049452;28;20371;-63
2024/03/15 12:07:44;;;;;;;4.00;1.70;;;20.00;56.40;;;;;;5070253;28;20039;-63
2024/03/15 12:10:13;;;;;;;4.22;1.88;;;20.00;56.00;;;;;;5059264;28;20029;-62
2024/03/15 12:12:39;;;;;;;4.50;1.85;;;19.90;56.10;;;;;;5048852;28;20025;-62
2024/03/15 12:15:06;;;;;;;2.00;1.70;;;19.90;56.10;;;;;;5050832;28;20446;-64
2024/03/15 12:17:31;;;;;;;4.00;1.95;;;19.90;56.00;;;;;;5053615;28;20033;-63
2024/03/15 12:19:58;;;;;;;2.33;1.55;;;20.00;56.10;;;;;;5052700;28;20520;-63
2024/03/15 12:22:24;;;;;;;3.28;1.58;;;20.00;56.00;;;;;;5054386;28;20119;-63
2024/03/15 12:24:51;;;;;;;1.85;1.58;;;20.00;56.10;;;;;;5056654;28;20123;-64
2024/03/15 12:27:16;;;;;;;2.67;1.95;;;20.00;56.10;;;;;;5055482;28;20032;-62
2024/03/15 12:29:42;;;;;;;2.00;1.75;;;20.00;55.80;;;;;;5052743;28;20020;-63
2024/03/15 12:32:07;;;;;;;2.17;1.48;;;20.00;56.00;;;;;;5049753;28;20522;-62
2024/03/15 12:34:33;;;;;;;2.47;1.50;;;20.00;56.00;;;;;;5053723;28;20811;-63
2024/03/15 12:36:58;;;;;;;1.95;1.60;;;20.00;56.10;;;;;;5056716;28;20048;-62
2024/03/15 12:39:24;;;;;;;1.98;1.75;;;20.00;56.00;;;;;;5052272;28;20105;-62
2024/03/15 12:41:54;;;;;;;2.42;1.25;;;20.00;55.80;;;;;;5055576;28;20590;-62
2024/03/15 12:45:03;;;;;;;2.05;1.30;;;20.00;55.90;;;;;;5052052;28;20050;-62
2024/03/15 12:47:32;;;;;;;1.92;1.10;;;20.10;55.80;;;;;;5057363;28;20035;-61
2024/03/15 12:49:57;;;;;;;2.35;1.52;;;20.10;55.60;;;;;;5055397;28;20037;-62
2024/03/15 12:52:23;;;;;;;2.25;1.50;;;20.10;55.40;;;;;;5054243;28;20205;-62